Time;durP1;ratioP1;P1;durP2;ratioP2;P2;SDS_P1;SDS_P2;PMS_P1;PMS_P2;Temp;Humidity;BMP_temperature;BMP_pressure;BME280_temperature;BME280_humidity;BME280_pressure;Samples;Min_cycle;Max_cycle;Signal;HPM_P1;HPM_P2
2022/07/11 00:00:04;;;;;;;2.70;1.97;;;18.20;82.00;;;;;;6201243;28;20245;-68
2022/07/11 00:03:07;;;;;;;2.00;1.77;;;18.10;81.80;;;;;;6200884;28;20713;-68
2022/07/11 00:06:10;;;;;;;2.13;1.90;;;18.00;82.60;;;;;;6201332;28;20663;-69
2022/07/11 00:09:13;;;;;;;2.33;2.07;;;18.10;83.10;;;;;;6200979;28;20574;-68
2022/07/11 00:12:20;;;;;;;1.93;1.83;;;18.10;83.10;;;;;;6201070;28;20561;-69
2022/07/11 00:15:24;;;;;;;2.43;2.23;;;18.00;83.00;;;;;;6200746;28;20233;-69
2022/07/11 00:18:28;;;;;;;2.03;1.83;;;18.00;83.30;;;;;;6200667;28;20723;-68
2022/07/11 00:21:31;;;;;;;2.60;1.53;;;18.00;83.50;;;;;;6201242;28;20473;-69
2022/07/11 00:24:34;;;;;;;2.10;2.00;;;17.90;82.90;;;;;;6201070;28;21005;-68
2022/07/11 00:27:37;;;;;;;2.30;1.90;;;17.80;82.80;;;;;;6201288;28;20234;-68
2022/07/11 00:30:42;;;;;;;2.10;1.80;;;17.80;82.80;;;;;;6196143;28;20481;-68
2022/07/11 00:33:45;;;;;;;2.53;1.60;;;17.70;83.40;;;;;;6200787;28;20489;-69
2022/07/11 00:36:48;;;;;;;2.00;1.90;;;17.70;83.40;;;;;;6200585;28;20667;-69
2022/07/11 00:39:51;;;;;;;2.30;1.93;;;17.70;83.40;;;;;;6200607;28;20481;-68
2022/07/11 00:42:55;;;;;;;2.03;1.70;;;17.60;84.10;;;;;;6200670;28;20483;-68
2022/07/11 00:45:59;;;;;;;2.00;1.80;;;17.50;84.90;;;;;;6200864;28;20464;-69
2022/07/11 00:49:03;;;;;;;2.10;1.90;;;17.50;85.00;;;;;;6200330;28;20482;-68
2022/07/11 00:52:06;;;;;;;3.47;1.83;;;17.50;85.20;;;;;;6201226;28;20476;-68
2022/07/11 00:55:11;;;;;;;3.40;2.20;;;17.30;86.00;;;;;;6200470;28;20477;-68
2022/07/11 00:58:15;;;;;;;2.87;2.37;;;17.20;86.90;;;;;;6201212;28;20477;-68
2022/07/11 01:01:21;;;;;;;2.63;2.10;;;17.20;87.40;;;;;;6204650;28;21004;-68
2022/07/11 01:04:24;;;;;;;1.87;1.77;;;17.20;87.00;;;;;;6206999;28;20543;-68
2022/07/11 01:07:27;;;;;;;2.30;2.10;;;17.10;87.30;;;;;;6205806;28;20789;-68
2022/07/11 01:10:31;;;;;;;2.00;1.90;;;17.00;88.00;;;;;;6207465;28;20824;-69
2022/07/11 01:13:34;;;;;;;2.00;1.90;;;17.00;88.90;;;;;;6212988;28;20468;-69
2022/07/11 01:16:39;;;;;;;2.53;2.27;;;17.00;89.30;;;;;;6215153;28;20484;-69
2022/07/11 01:19:42;;;;;;;3.90;2.33;;;16.90;89.20;;;;;;6215604;28;20671;-68
2022/07/11 01:22:48;;;;;;;2.47;1.60;;;16.90;89.80;;;;;;6207943;28;20480;-68
2022/07/11 01:25:53;;;;;;;3.93;1.90;;;16.80;90.40;;;;;;6206590;28;20480;-69
2022/07/11 01:29:06;;;;;;;1.77;1.67;;;16.70;90.30;;;;;;6204848;28;20588;-68
2022/07/11 01:32:09;;;;;;;1.83;1.73;;;16.70;90.60;;;;;;6205247;28;20473;-69
2022/07/11 01:35:12;;;;;;;4.70;2.20;;;16.60;90.70;;;;;;6203631;28;20485;-69
2022/07/11 01:38:15;;;;;;;1.83;1.73;;;16.50;91.10;;;;;;6213922;28;20887;-68
2022/07/11 01:41:20;;;;;;;2.07;1.90;;;16.40;91.40;;;;;;6209540;28;20472;-68
2022/07/11 01:44:23;;;;;;;3.07;2.77;;;16.50;91.80;;;;;;6228438;28;20464;-68
2022/07/11 01:47:26;;;;;;;2.50;2.30;;;16.50;91.80;;;;;;6228431;28;20451;-68
2022/07/11 01:50:29;;;;;;;3.10;2.10;;;16.50;91.80;;;;;;6228416;28;20934;-68
2022/07/11 01:53:32;;;;;;;2.80;2.47;;;16.40;92.10;;;;;;6228345;28;20452;-68
2022/07/11 01:56:37;;;;;;;3.83;2.83;;;16.40;92.30;;;;;;6227850;28;20479;-69
2022/07/11 01:59:40;;;;;;;2.43;2.23;;;16.30;92.20;;;;;;6227808;28;20488;-68
2022/07/11 02:02:43;;;;;;;2.80;1.97;;;16.30;92.40;;;;;;6227949;28;20464;-69
2022/07/11 02:05:46;;;;;;;2.40;1.90;;;16.30;92.70;;;;;;6227963;28;20551;-68
2022/07/11 02:08:49;;;;;;;3.60;2.30;;;16.30;92.90;;;;;;6227803;28;20482;-67
2022/07/11 02:11:54;;;;;;;2.50;2.00;;;16.20;92.90;;;;;;6227901;28;20491;-68
2022/07/11 02:14:57;;;;;;;3.20;2.20;;;16.10;93.00;;;;;;6227487;28;20476;-68
2022/07/11 02:18:00;;;;;;;2.90;2.20;;;16.10;93.40;;;;;;6227384;28;20468;-67
2022/07/11 02:21:04;;;;;;;3.13;1.90;;;16.00;93.60;;;;;;6227484;28;20925;-68
2022/07/11 02:24:07;;;;;;;3.00;2.03;;;16.00;93.80;;;;;;6227148;28;20468;-68
2022/07/11 02:27:11;;;;;;;4.17;2.40;;;16.00;93.90;;;;;;6226917;28;20480;-68
2022/07/11 02:30:14;;;;;;;2.60;2.40;;;15.80;94.40;;;;;;6226917;28;20476;-68
2022/07/11 02:33:18;;;;;;;2.70;2.33;;;15.80;94.60;;;;;;6226729;28;20464;-69
2022/07/11 02:36:21;;;;;;;2.50;2.20;;;15.80;94.60;;;;;;6226975;28;20475;-68
2022/07/11 02:39:24;;;;;;;3.77;2.30;;;15.80;94.90;;;;;;6222248;28;20484;-68
2022/07/11 02:42:29;;;;;;;1.93;1.77;;;15.80;95.00;;;;;;6226840;28;20472;-69
2022/07/11 02:45:32;;;;;;;2.43;2.23;;;15.80;95.00;;;;;;6227082;28;20984;-68
2022/07/11 02:48:35;;;;;;;2.70;2.50;;;15.70;95.00;;;;;;6226355;28;20472;-69
2022/07/11 02:51:39;;;;;;;2.93;2.17;;;15.60;95.50;;;;;;6226638;28;20478;-69
2022/07/11 02:54:42;;;;;;;2.90;2.00;;;15.50;95.70;;;;;;6227246;28;20464;-69
2022/07/11 02:57:46;;;;;;;2.53;2.33;;;15.40;96.00;;;;;;6227261;28;20468;-69
2022/07/11 03:00:49;;;;;;;2.07;1.87;;;15.40;96.50;;;;;;6226507;28;20475;-68
2022/07/11 03:03:53;;;;;;;2.17;2.07;;;15.40;96.30;;;;;;6226570;28;20472;-68
2022/07/11 03:06:57;;;;;;;3.67;2.53;;;15.40;96.40;;;;;;6225921;28;20808;-69
2022/07/11 03:10:00;;;;;;;4.50;2.40;;;15.40;96.50;;;;;;6226175;28;20487;-68
2022/07/11 03:13:04;;;;;;;2.63;2.20;;;15.50;96.60;;;;;;6226341;28;20474;-68
2022/07/11 03:16:08;;;;;;;2.70;2.10;;;15.50;96.60;;;;;;6225905;28;20483;-69
2022/07/11 03:19:11;;;;;;;3.40;2.70;;;15.50;96.50;;;;;;6226349;28;20555;-68
2022/07/11 03:22:15;;;;;;;4.80;2.40;;;15.50;96.50;;;;;;6225476;28;20469;-69
2022/07/11 03:25:18;;;;;;;2.63;2.40;;;15.50;96.60;;;;;;6225906;28;20468;-69
2022/07/11 03:28:22;;;;;;;2.57;2.37;;;15.30;96.70;;;;;;6225791;28;20507;-68
2022/07/11 03:31:25;;;;;;;4.80;2.10;;;15.20;97.10;;;;;;6225905;28;20464;-69
2022/07/11 03:34:29;;;;;;;2.30;2.13;;;15.20;97.30;;;;;;6225349;28;20490;-69
2022/07/11 03:37:32;;;;;;;3.03;2.43;;;15.30;97.20;;;;;;6226123;28;20471;-69
2022/07/11 03:40:35;;;;;;;2.60;2.40;;;15.30;97.20;;;;;;6225422;28;20480;-68
2022/07/11 03:43:40;;;;;;;2.47;2.27;;;15.30;97.20;;;;;;6216193;28;20783;-68
2022/07/11 03:46:43;;;;;;;2.30;2.20;;;15.30;97.10;;;;;;6225481;28;20547;-68
2022/07/11 03:49:47;;;;;;;2.80;2.60;;;15.30;97.20;;;;;;6225486;28;20484;-68
2022/07/11 03:52:50;;;;;;;2.70;2.50;;;15.30;97.30;;;;;;6225711;28;20476;-68
2022/07/11 03:55:53;;;;;;;2.80;2.17;;;15.20;97.20;;;;;;6225385;28;20995;-68
2022/07/11 03:58:58;;;;;;;2.53;2.33;;;15.20;97.30;;;;;;6225706;28;20483;-68
2022/07/11 04:02:01;;;;;;;3.40;2.90;;;15.30;97.50;;;;;;6225125;28;20476;-68
2022/07/11 04:05:05;;;;;;;3.50;2.53;;;15.30;97.50;;;;;;6225311;28;20567;-68
2022/07/11 04:08:08;;;;;;;2.83;2.57;;;15.40;97.50;;;;;;6225090;28;20994;-67
2022/07/11 04:11:11;;;;;;;3.37;2.50;;;15.50;97.30;;;;;;6225260;28;20966;-68
2022/07/11 04:14:16;;;;;;;3.30;2.63;;;15.50;97.20;;;;;;6225026;28;20977;-68
2022/07/11 04:17:19;;;;;;;2.93;2.43;;;15.60;97.20;;;;;;6225241;28;20828;-68
2022/07/11 04:20:22;;;;;;;4.60;2.33;;;15.80;97.00;;;;;;6224899;28;20506;-67
2022/07/11 04:23:25;;;;;;;3.03;2.60;;;15.90;96.80;;;;;;6225282;28;20464;-68
2022/07/11 04:26:28;;;;;;;3.97;2.53;;;15.90;96.60;;;;;;6201022;28;20460;-68
2022/07/11 04:29:33;;;;;;;2.40;2.20;;;16.10;96.50;;;;;;6200478;28;20484;-67
2022/07/11 04:32:36;;;;;;;2.50;2.20;;;16.20;96.00;;;;;;6200527;28;20474;-67
2022/07/11 04:35:39;;;;;;;5.30;2.10;;;16.30;95.90;;;;;;6181281;28;20450;-68
2022/07/11 04:38:44;;;;;;;2.60;2.23;;;16.40;95.70;;;;;;6181450;28;20609;-67
2022/07/11 04:41:47;;;;;;;5.20;2.03;;;16.50;95.40;;;;;;6195842;28;20471;-68
2022/07/11 04:44:51;;;;;;;3.43;1.90;;;16.70;95.10;;;;;;6221372;28;20487;-68
2022/07/11 04:47:54;;;;;;;4.30;2.73;;;16.80;95.00;;;;;;6205098;28;21006;-67
2022/07/11 04:50:58;;;;;;;5.10;1.90;;;16.90;94.90;;;;;;6205049;28;20950;-68
2022/07/11 04:54:01;;;;;;;2.40;2.20;;;17.00;94.70;;;;;;6205971;28;20491;-68
2022/07/11 04:57:05;;;;;;;2.40;2.20;;;17.10;94.40;;;;;;6204736;28;20779;-68
2022/07/11 05:00:10;;;;;;;4.83;2.23;;;17.20;94.30;;;;;;6203010;28;20477;-68
2022/07/11 05:03:14;;;;;;;2.73;2.10;;;17.20;94.30;;;;;;6203755;28;20804;-68
2022/07/11 05:06:17;;;;;;;2.73;2.10;;;17.30;94.60;;;;;;6203527;28;21089;-68
2022/07/11 05:09:21;;;;;;;2.70;2.43;;;17.40;94.30;;;;;;6202894;28;20952;-68
2022/07/11 05:12:24;;;;;;;2.57;2.30;;;17.50;94.20;;;;;;6204356;28;20956;-68
2022/07/11 05:15:29;;;;;;;4.97;2.63;;;17.60;93.90;;;;;;6204464;28;20476;-68
2022/07/11 05:18:32;;;;;;;3.17;2.03;;;17.70;93.80;;;;;;6204660;28;20229;-69
2022/07/11 05:21:35;;;;;;;2.60;2.40;;;17.90;93.70;;;;;;6206221;28;20364;-68
2022/07/11 05:24:38;;;;;;;2.40;2.20;;;18.00;93.40;;;;;;6205203;28;20230;-69
2022/07/11 05:27:42;;;;;;;3.10;2.60;;;18.10;93.30;;;;;;6205526;28;20247;-68
2022/07/11 05:30:46;;;;;;;8.63;2.40;;;18.20;92.60;;;;;;6205474;28;20672;-68
2022/07/11 05:33:49;;;;;;;3.87;2.30;;;18.30;92.30;;;;;;6204463;28;20241;-68
2022/07/11 05:36:53;;;;;;;5.37;2.63;;;18.40;92.10;;;;;;6204235;28;20472;-68
2022/07/11 05:39:56;;;;;;;5.93;3.43;;;18.50;91.80;;;;;;6204025;28;20237;-68
2022/07/11 05:43:08;;;;;;;3.20;2.20;;;18.70;91.60;;;;;;6204405;28;20230;-68
2022/07/11 05:46:13;;;;;;;4.03;2.50;;;18.70;90.90;;;;;;6203766;28;20230;-69
2022/07/11 05:49:16;;;;;;;3.83;2.50;;;18.80;90.80;;;;;;6204500;28;20241;-70
2022/07/11 05:52:19;;;;;;;4.37;3.37;;;18.90;90.40;;;;;;6203840;28;20576;-68
2022/07/11 05:55:22;;;;;;;5.50;2.40;;;18.90;90.40;;;;;;6203784;28;20272;-68
2022/07/11 05:58:26;;;;;;;2.87;2.37;;;19.10;90.20;;;;;;6203511;28;20258;-67
2022/07/11 06:01:31;;;;;;;2.77;2.13;;;19.20;90.00;;;;;;6205209;28;20229;-69
2022/07/11 06:04:39;;;;;;;6.97;2.13;;;19.40;89.10;;;;;;6203872;28;20230;-68
2022/07/11 06:11:02;;;;;;;3.77;2.80;;;19.70;88.30;;;;;;6205727;28;20226;-68
2022/07/11 06:14:06;;;;;;;4.00;2.37;;;20.30;87.20;;;;;;6203411;28;20244;-69
2022/07/11 06:17:12;;;;;;;2.83;2.50;;;21.00;84.10;;;;;;6203817;28;20253;-68
2022/07/11 06:20:15;;;;;;;4.43;2.67;;;21.70;79.80;;;;;;6203155;28;20248;-67
2022/07/11 06:23:18;;;;;;;4.87;2.90;;;21.70;76.30;;;;;;6203212;28;20226;-69
2022/07/11 06:26:21;;;;;;;3.03;2.60;;;22.20;75.80;;;;;;6203012;28;20232;-69
2022/07/11 06:29:24;;;;;;;3.60;2.20;;;22.50;74.70;;;;;;6202381;28;20241;-68
2022/07/11 06:32:31;;;;;;;12.33;2.80;;;21.80;74.10;;;;;;6202963;28;20216;-69
2022/07/11 06:35:34;;;;;;;5.37;2.80;;;21.90;74.90;;;;;;6202969;28;20524;-68
2022/07/11 06:38:37;;;;;;;5.50;3.00;;;22.90;74.10;;;;;;6202807;28;20272;-69
2022/07/11 06:41:40;;;;;;;3.63;1.97;;;23.90;69.50;;;;;;6202987;28;20277;-69
2022/07/11 06:44:43;;;;;;;4.20;2.30;;;24.80;64.80;;;;;;6202619;28;20237;-69
2022/07/11 06:47:48;;;;;;;5.10;2.30;;;24.80;62.20;;;;;;6202952;28;20230;-69
2022/07/11 06:50:51;;;;;;;2.10;1.90;;;25.90;59.20;;;;;;6202428;28;20229;-69
2022/07/11 06:53:54;;;;;;;3.30;2.07;;;26.50;56.60;;;;;;6193943;28;20243;-68
2022/07/11 06:56:57;;;;;;;4.07;2.63;;;27.10;54.80;;;;;;6201803;28;20221;-68
2022/07/11 07:00:00;;;;;;;3.07;1.87;;;27.50;52.60;;;;;;6202103;28;20225;-67
2022/07/11 07:03:05;;;;;;;4.53;2.10;;;27.60;52.60;;;;;;6201905;28;20236;-70
2022/07/11 07:06:20;;;;;;;3.30;2.23;;;28.20;50.40;;;;;;6202440;28;20257;-69
2022/07/11 07:09:24;;;;;;;3.07;1.80;;;29.30;48.40;;;;;;6202022;28;20234;-70
2022/07/11 07:12:27;;;;;;;3.83;1.80;;;29.80;45.20;;;;;;6202038;28;20235;-70
2022/07/11 07:15:30;;;;;;;2.90;1.30;;;30.50;43.30;;;;;;6202066;28;20229;-69
2022/07/11 07:18:40;;;;;;;4.37;1.80;;;30.60;42.70;;;;;;6202078;28;20234;-70
2022/07/11 07:21:45;;;;;;;2.72;1.38;;;30.70;41.80;;;;;;6202392;28;20225;-69
2022/07/11 07:24:48;;;;;;;3.10;1.20;;;31.00;40.50;;;;;;6204945;28;20243;-69
2022/07/11 07:27:52;;;;;;;6.55;1.88;;;31.00;39.20;;;;;;6206768;28;20709;-68
2022/07/11 07:30:55;;;;;;;2.97;1.50;;;31.40;40.50;;;;;;6203327;28;20233;-70
2022/07/11 07:33:59;;;;;;;4.35;1.60;;;32.60;38.50;;;;;;6202554;28;20319;-68
2022/07/11 07:37:03;;;;;;;4.05;1.40;;;33.30;37.20;;;;;;6202954;28;20232;-69
2022/07/11 07:40:07;;;;;;;4.68;1.73;;;34.20;36.40;;;;;;6201172;28;20233;-68
2022/07/11 07:43:11;;;;;;;4.13;1.42;;;34.80;34.80;;;;;;6201209;28;20671;-68
2022/07/11 07:46:14;;;;;;;2.05;1.33;;;35.70;33.30;;;;;;6201463;28;20237;-69
2022/07/11 07:49:19;;;;;;;2.40;1.17;;;35.40;32.00;;;;;;6200529;28;20229;-69
2022/07/11 07:52:22;;;;;;;3.42;1.30;;;35.40;32.80;;;;;;6199683;28;20229;-69
2022/07/11 07:55:26;;;;;;;4.55;1.65;;;35.50;32.60;;;;;;6200469;28;20235;-69
2022/07/11 07:58:29;;;;;;;2.22;1.30;;;35.40;32.60;;;;;;6190700;28;20241;-68
2022/07/11 08:01:41;;;;;;;2.38;1.20;;;34.20;33.00;;;;;;6200272;28;20230;-69
2022/07/11 08:04:45;;;;;;;3.80;1.90;;;33.90;33.50;;;;;;6198405;28;20261;-69
2022/07/11 08:07:52;;;;;;;3.55;1.33;;;33.70;33.30;;;;;;6201120;28;20236;-69
2022/07/11 08:10:55;;;;;;;2.08;1.27;;;33.20;33.00;;;;;;6204839;28;20229;-68
2022/07/11 08:14:18;;;;;;;4.47;1.20;;;31.70;34.30;;;;;;6204330;28;20233;-70
2022/07/11 08:17:22;;;;;;;6.38;2.20;;;31.20;35.20;;;;;;6203203;28;20287;-68
2022/07/11 08:20:26;;;;;;;1.95;1.30;;;30.80;35.80;;;;;;6205271;28;20213;-70
2022/07/11 08:23:29;;;;;;;1.48;1.27;;;30.00;36.50;;;;;;6206008;28;20217;-69
2022/07/11 08:26:33;;;;;;;4.60;1.57;;;29.20;37.00;;;;;;6206326;28;20205;-70
2022/07/11 08:29:36;;;;;;;7.30;1.70;;;28.90;38.50;;;;;;6205713;28;20319;-70
2022/07/11 08:32:40;;;;;;;2.80;1.67;;;28.70;38.90;;;;;;6206544;28;20205;-69
2022/07/11 08:35:46;;;;;;;1.73;1.07;;;28.10;40.40;;;;;;6206063;28;20353;-69
2022/07/11 08:38:49;;;;;;;8.03;1.67;;;27.40;39.10;;;;;;6205659;28;20541;-68
2022/07/11 08:41:52;;;;;;;5.80;1.00;;;26.90;38.50;;;;;;6205619;28;20235;-69
2022/07/11 08:44:56;;;;;;;3.90;0.83;;;26.70;37.80;;;;;;6205517;28;20229;-69
2022/07/11 08:48:01;;;;;;;1.70;0.83;;;26.50;38.40;;;;;;6206925;28;20702;-68
2022/07/11 08:51:07;;;;;;;1.80;0.73;;;26.30;39.20;;;;;;6205722;28;20664;-68
2022/07/11 08:54:12;;;;;;;2.93;0.83;;;26.40;39.20;;;;;;6199394;28;20315;-68
2022/07/11 08:57:15;;;;;;;1.57;0.87;;;26.40;39.00;;;;;;6211538;28;20362;-68
2022/07/11 09:00:19;;;;;;;1.07;0.87;;;26.40;38.20;;;;;;6216888;28;20244;-68
2022/07/11 09:03:23;;;;;;;1.27;1.00;;;26.50;39.50;;;;;;6204714;28;20231;-69
2022/07/11 09:06:28;;;;;;;1.33;0.90;;;26.50;39.10;;;;;;6204432;28;20234;-68
2022/07/11 09:09:31;;;;;;;0.97;0.70;;;26.60;38.40;;;;;;6202414;28;20292;-69
2022/07/11 09:12:34;;;;;;;8.90;1.70;;;26.70;38.80;;;;;;6202637;28;20240;-69
2022/07/11 09:15:40;;;;;;;9.90;3.70;;;26.60;38.10;;;;;;6203822;28;20556;-69
2022/07/11 09:18:43;;;;;;;3.77;1.70;;;26.50;36.50;;;;;;6200601;28;20671;-70
2022/07/11 09:25:30;;;;;;;16.57;4.07;;;26.20;37.70;;;;;;6207041;28;20323;-69
2022/07/11 09:28:33;;;;;;;1.03;0.87;;;26.30;37.50;;;;;;6185268;28;20230;-69
2022/07/11 09:31:38;;;;;;;1.00;0.50;;;26.40;37.50;;;;;;6193639;28;20226;-70
2022/07/11 09:35:01;;;;;;;1.27;0.50;;;26.40;37.10;;;;;;6193888;28;20232;-69
2022/07/11 09:38:07;;;;;;;1.30;1.10;;;26.40;37.20;;;;;;6180281;28;20289;-69
2022/07/11 09:41:12;;;;;;;2.50;0.50;;;26.50;36.80;;;;;;6199599;28;20251;-69
2022/07/11 09:44:17;;;;;;;2.80;0.90;;;26.50;35.60;;;;;;6197862;28;20240;-69
2022/07/11 09:47:20;;;;;;;1.23;0.67;;;26.60;38.00;;;;;;6200846;28;20225;-70
2022/07/11 09:50:25;;;;;;;1.67;0.70;;;26.70;36.60;;;;;;6203299;28;20233;-70
2022/07/11 09:53:31;;;;;;;0.80;0.60;;;26.90;36.50;;;;;;6200119;28;20559;-69
2022/07/11 09:56:35;;;;;;;0.93;0.60;;;27.00;37.10;;;;;;6191509;28;20208;-69
2022/07/11 09:59:59;;;;;;;4.27;1.17;;;27.10;36.00;;;;;;6187118;28;20229;-69
2022/07/11 10:03:03;;;;;;;2.50;0.80;;;26.90;35.10;;;;;;6187801;28;20229;-70
2022/07/11 10:06:07;;;;;;;1.30;0.60;;;26.60;35.20;;;;;;6186690;28;20282;-70
2022/07/11 10:09:12;;;;;;;1.37;0.47;;;26.50;35.70;;;;;;6201386;28;20551;-70
2022/07/11 10:12:15;;;;;;;3.70;0.50;;;26.50;36.50;;;;;;6208755;28;20236;-69
2022/07/11 10:15:21;;;;;;;4.23;0.90;;;26.60;36.90;;;;;;6226217;28;20686;-69
2022/07/11 10:18:34;;;;;;;5.50;4.33;;;26.80;35.80;;;;;;6225740;28;20221;-70
2022/07/11 10:21:45;;;;;;;4.67;2.70;;;26.80;35.80;;;;;;6226312;28;20240;-67
2022/07/11 10:25:02;;;;;;;1.93;0.60;;;26.80;35.80;;;;;;6217822;28;20231;-69
2022/07/11 10:28:15;;;;;;;1.37;0.60;;;26.80;35.70;;;;;;6219004;28;20225;-68
2022/07/11 10:31:20;;;;;;;0.77;0.40;;;26.90;35.80;;;;;;6217177;28;20232;-68
2022/07/11 10:34:29;;;;;;;1.00;0.40;;;27.00;35.40;;;;;;6212449;28;20228;-68
2022/07/11 10:37:47;;;;;;;1.87;0.57;;;27.30;35.30;;;;;;6210313;28;20682;-68
2022/07/11 10:40:53;;;;;;;7.80;1.77;;;27.30;35.60;;;;;;6212884;28;20226;-67
2022/07/11 10:43:58;;;;;;;1.00;0.50;;;27.30;35.30;;;;;;6218280;28;20240;-68
2022/07/11 10:47:02;;;;;;;1.13;0.43;;;27.60;34.90;;;;;;6217007;28;20250;-67
2022/07/11 10:50:14;;;;;;;0.80;0.50;;;27.80;35.10;;;;;;6224115;28;20239;-67
2022/07/11 10:53:23;;;;;;;1.27;0.50;;;28.10;34.70;;;;;;6202911;28;20237;-67
2022/07/11 10:56:47;;;;;;;0.93;0.60;;;28.00;34.10;;;;;;6216104;28;20222;-67
2022/07/11 10:59:59;;;;;;;8.03;1.90;;;28.00;33.90;;;;;;6225638;28;20248;-68
2022/07/11 11:03:05;;;;;;;7.70;1.30;;;28.20;34.00;;;;;;6226039;28;20225;-68
2022/07/11 11:06:09;;;;;;;3.30;0.80;;;28.10;34.70;;;;;;6218664;28;20247;-68
2022/07/11 11:09:38;;;;;;;3.60;0.77;;;28.00;34.20;;;;;;6202753;28;20229;-68
2022/07/11 11:13:19;;;;;;;1.63;0.40;;;28.00;34.00;;;;;;6201676;28;20264;-69
2022/07/11 11:16:24;;;;;;;10.90;2.23;;;27.70;33.80;;;;;;6188430;28;20225;-69
2022/07/11 11:19:53;;;;;;;3.50;1.10;;;27.80;34.10;;;;;;6203904;28;20311;-68
2022/07/11 11:23:09;;;;;;;9.23;1.60;;;27.80;33.80;;;;;;6199510;28;20532;-69
2022/07/11 11:26:14;;;;;;;1.30;0.57;;;28.00;34.10;;;;;;6202982;28;20313;-69
2022/07/11 11:29:25;;;;;;;56.50;4.73;;;27.80;33.70;;;;;;6201288;28;20243;-69
2022/07/11 11:32:31;;;;;;;19.77;2.43;;;27.60;33.70;;;;;;6201105;28;20304;-68
2022/07/11 11:35:35;;;;;;;2.40;1.33;;;27.90;35.20;;;;;;6198111;28;20631;-69
2022/07/11 11:38:39;;;;;;;5.83;2.13;;;28.00;37.20;;;;;;6190421;28;20230;-68
2022/07/11 11:41:42;;;;;;;1.87;1.23;;;27.60;37.90;;;;;;6192528;28;20206;-68
2022/07/11 11:44:53;;;;;;;12.57;2.10;;;27.50;38.30;;;;;;6188407;28;20327;-68
2022/07/11 11:47:56;;;;;;;2.37;0.90;;;27.60;38.00;;;;;;6179861;28;20233;-67
2022/07/11 11:51:03;;;;;;;5.00;0.90;;;27.50;37.60;;;;;;6190341;28;20678;-68
2022/07/11 11:54:06;;;;;;;2.80;1.10;;;27.60;36.70;;;;;;6194425;28;20226;-68
2022/07/11 11:57:11;;;;;;;2.90;1.17;;;27.80;36.90;;;;;;6191467;28;20225;-68
2022/07/11 12:00:26;;;;;;;2.03;0.80;;;27.80;36.80;;;;;;6184416;28;20251;-68
2022/07/11 12:03:50;;;;;;;2.20;0.87;;;27.20;37.10;;;;;;6190533;28;20229;-69
2022/07/11 12:06:54;;;;;;;1.13;0.77;;;27.20;37.50;;;;;;6188048;28;20892;-68
2022/07/11 12:09:59;;;;;;;3.07;1.40;;;26.90;37.90;;;;;;6195824;28;20229;-68
2022/07/11 12:13:02;;;;;;;2.43;0.90;;;27.10;37.90;;;;;;6185283;28;20236;-68
2022/07/11 12:19:38;;;;;;;2.03;1.10;;;27.20;36.30;;;;;;6178699;28;20238;-69
2022/07/11 12:22:43;;;;;;;3.73;0.70;;;27.30;36.30;;;;;;6200435;28;20227;-68
2022/07/11 12:25:48;;;;;;;11.33;2.60;;;27.30;36.60;;;;;;6193536;28;20581;-68
2022/07/11 12:29:08;;;;;;;9.70;1.80;;;27.30;38.00;;;;;;6199655;28;20677;-68
2022/07/11 12:32:14;;;;;;;2.63;1.17;;;27.50;38.50;;;;;;6199884;28;20237;-68
2022/07/11 12:35:17;;;;;;;10.07;1.80;;;27.40;38.90;;;;;;6185000;28;20236;-69
2022/07/11 12:38:21;;;;;;;12.73;1.77;;;27.40;38.40;;;;;;6199447;28;20596;-68
2022/07/11 12:41:25;;;;;;;3.53;1.20;;;27.30;39.60;;;;;;6200668;28;20368;-68
2022/07/11 12:47:53;;;;;;;8.50;1.43;;;27.50;39.50;;;;;;6195279;28;20225;-67
2022/07/11 12:50:56;;;;;;;4.70;1.00;;;27.40;39.00;;;;;;6188279;28;20226;-68
2022/07/11 12:54:02;;;;;;;4.30;1.10;;;27.80;38.80;;;;;;6192642;28;20233;-68
2022/07/11 12:57:06;;;;;;;21.27;6.37;;;28.00;38.00;;;;;;6193447;28;20247;-68
2022/07/11 13:00:16;;;;;;;1.67;1.17;;;28.20;38.40;;;;;;6198820;28;20345;-69
2022/07/11 13:03:28;;;;;;;1.70;1.10;;;28.40;38.20;;;;;;6194958;28;20947;-70
2022/07/11 13:10:04;;;;;;;5.90;1.10;;;28.30;37.80;;;;;;6199857;28;20244;-68
2022/07/11 13:13:07;;;;;;;1.30;0.80;;;28.30;38.10;;;;;;6193214;28;20239;-68
2022/07/11 13:16:10;;;;;;;3.03;1.33;;;28.00;37.00;;;;;;6183037;28;20240;-69
2022/07/11 13:19:15;;;;;;;3.50;1.40;;;27.30;38.80;;;;;;6204231;28;20549;-68
2022/07/11 13:22:19;;;;;;;1.43;0.90;;;27.40;39.10;;;;;;6202663;28;20226;-69
2022/07/11 13:25:24;;;;;;;1.10;0.90;;;27.50;38.30;;;;;;6198964;28;20225;-68
2022/07/11 13:28:28;;;;;;;2.20;1.03;;;27.10;39.10;;;;;;6198157;28;20549;-67
2022/07/11 13:31:31;;;;;;;1.37;1.10;;;27.10;38.50;;;;;;6195768;28;20240;-70
2022/07/11 13:34:35;;;;;;;1.30;1.13;;;27.20;38.80;;;;;;6188337;28;20241;-68
2022/07/11 13:37:40;;;;;;;1.40;0.87;;;27.40;38.20;;;;;;6187386;28;20225;-67
2022/07/11 13:40:44;;;;;;;6.20;1.07;;;27.60;38.50;;;;;;6203348;28;20229;-68
2022/07/11 13:43:47;;;;;;;3.37;1.20;;;27.60;37.70;;;;;;6202631;28;20225;-68
2022/07/11 13:46:50;;;;;;;1.33;1.00;;;27.50;37.00;;;;;;6203597;28;20236;-69
2022/07/11 13:49:55;;;;;;;3.50;1.80;;;27.40;38.70;;;;;;6201831;28;20244;-69
2022/07/11 13:52:59;;;;;;;1.10;0.90;;;27.40;39.10;;;;;;6191180;28;20519;-68
2022/07/11 13:56:02;;;;;;;1.73;0.70;;;27.40;39.10;;;;;;6188422;28;20307;-68
2022/07/11 13:59:05;;;;;;;1.83;0.83;;;27.50;38.80;;;;;;6191401;28;20249;-69
2022/07/11 14:02:09;;;;;;;1.40;0.90;;;27.50;38.40;;;;;;6195006;28;20360;-69
2022/07/11 14:05:14;;;;;;;5.30;1.13;;;27.20;38.00;;;;;;6178985;28;20249;-68
2022/07/11 14:08:17;;;;;;;1.53;0.80;;;27.10;39.50;;;;;;6194764;28;20673;-68
2022/07/11 14:11:20;;;;;;;1.10;0.70;;;27.00;38.50;;;;;;6192456;28;20236;-68
2022/07/11 14:14:23;;;;;;;2.03;1.13;;;27.10;38.50;;;;;;6202576;28;20239;-70
2022/07/11 14:17:26;;;;;;;1.07;0.77;;;27.10;38.80;;;;;;6196512;28;20225;-70
2022/07/11 14:20:31;;;;;;;1.30;0.90;;;27.20;38.90;;;;;;6198638;28;20232;-68
2022/07/11 14:23:34;;;;;;;2.20;1.17;;;27.40;39.30;;;;;;6201833;28;20207;-69
2022/07/11 14:26:39;;;;;;;1.73;1.00;;;27.50;39.00;;;;;;6202063;28;20211;-71
2022/07/11 14:29:43;;;;;;;1.80;1.20;;;27.50;39.20;;;;;;6201923;28;20253;-69
2022/07/11 14:32:46;;;;;;;1.43;0.90;;;27.60;39.40;;;;;;6178734;28;20225;-69
2022/07/11 14:35:50;;;;;;;2.70;1.30;;;27.50;38.50;;;;;;6194097;28;20295;-69
2022/07/11 14:38:54;;;;;;;2.40;1.30;;;27.60;39.10;;;;;;6187799;28;20233;-64
2022/07/11 14:41:58;;;;;;;3.40;1.00;;;27.80;39.20;;;;;;6196549;28;20225;-65
2022/07/11 14:45:18;;;;;;;2.67;1.30;;;27.90;39.30;;;;;;6185684;28;20237;-65
2022/07/11 14:48:22;;;;;;;1.20;0.87;;;27.90;39.20;;;;;;6196575;28;20249;-66
2022/07/11 14:51:27;;;;;;;2.70;1.00;;;27.90;38.50;;;;;;6200415;28;20229;-64
2022/07/11 14:54:50;;;;;;;2.20;1.00;;;27.80;38.60;;;;;;6189552;28;20240;-64
2022/07/11 14:57:53;;;;;;;3.13;1.10;;;27.70;39.40;;;;;;6190235;28;20220;-65
2022/07/11 15:00:57;;;;;;;1.43;0.90;;;27.70;39.80;;;;;;6191531;28;20241;-63
2022/07/11 15:04:02;;;;;;;3.23;1.10;;;27.70;39.40;;;;;;6193681;28;20705;-65
2022/07/11 15:13:57;;;;;;;1.17;0.90;;;27.40;41.00;;;;;;6185131;28;20694;-64
2022/07/11 15:17:00;;;;;;;1.87;1.27;;;27.30;39.90;;;;;;6200567;28;20225;-64
2022/07/11 15:20:03;;;;;;;1.53;1.00;;;27.20;40.10;;;;;;6201377;28;20618;-67
2022/07/11 15:23:08;;;;;;;1.40;1.03;;;27.10;40.20;;;;;;6190732;28;20226;-63
2022/07/11 15:26:11;;;;;;;1.40;1.10;;;27.10;41.50;;;;;;6192004;28;20237;-64
2022/07/11 15:29:15;;;;;;;3.10;1.33;;;27.10;41.60;;;;;;6189746;28;20689;-64
2022/07/11 15:32:18;;;;;;;2.30;1.13;;;27.00;42.70;;;;;;6193689;28;20233;-65
2022/07/11 15:35:21;;;;;;;1.40;0.70;;;27.10;44.10;;;;;;6189876;28;20225;-65
2022/07/11 15:38:26;;;;;;;2.50;1.20;;;27.30;44.00;;;;;;6196043;28;20230;-65
2022/07/11 15:41:29;;;;;;;0.80;0.80;;;27.40;41.30;;;;;;6214216;28;20227;-64
2022/07/11 15:44:33;;;;;;;1.20;0.90;;;27.50;42.20;;;;;;6219580;28;20201;-64
2022/07/11 15:47:36;;;;;;;1.93;0.90;;;27.60;42.60;;;;;;6213764;28;20615;-63
2022/07/11 15:50:39;;;;;;;1.50;0.80;;;27.80;42.30;;;;;;6207353;28;20231;-64
2022/07/11 15:53:44;;;;;;;1.30;1.00;;;27.60;41.60;;;;;;6208460;28;20227;-63
2022/07/11 15:56:47;;;;;;;0.87;0.80;;;27.60;41.50;;;;;;6223415;28;20205;-63
2022/07/11 15:59:50;;;;;;;1.37;0.73;;;27.70;41.90;;;;;;6224030;28;20244;-63
2022/07/11 16:02:53;;;;;;;3.53;0.87;;;27.60;41.50;;;;;;6225029;28;20224;-63
2022/07/11 16:05:57;;;;;;;1.70;0.73;;;27.60;41.50;;;;;;6208788;28;20225;-65
2022/07/11 16:09:02;;;;;;;1.20;0.90;;;27.60;42.30;;;;;;6215834;28;20648;-66
2022/07/11 16:12:05;;;;;;;2.10;0.83;;;27.70;41.60;;;;;;6216553;28;20547;-66
2022/07/11 16:15:09;;;;;;;1.27;0.90;;;27.70;41.20;;;;;;6210043;28;20243;-66
2022/07/11 16:18:14;;;;;;;1.20;0.80;;;27.80;40.90;;;;;;6221165;28;20233;-69
2022/07/11 16:21:17;;;;;;;1.23;0.83;;;27.80;41.00;;;;;;6225322;28;20319;-64
2022/07/11 16:24:21;;;;;;;1.10;0.90;;;27.70;41.50;;;;;;6221800;28;20239;-63